sensor_id;sensor_type;location;lat;lon;timestamp;pressure;altitude;pressure_sealevel;temperature;humidity
49102;BME280;34913;47.520;19.186;2023-02-10T00:00:42;102053.69;;;-5.53;79.03
49102;BME280;34913;47.520;19.186;2023-02-10T00:03:07;102052.84;;;-5.50;78.51
49102;BME280;34913;47.520;19.186;2023-02-10T00:05:33;102053.72;;;-5.50;78.88
49102;BME280;34913;47.520;19.186;2023-02-10T00:07:58;102058.91;;;-5.50;78.51
49102;BME280;34913;47.520;19.186;2023-02-10T00:10:23;102065.84;;;-5.46;78.01
49102;BME280;34913;47.520;19.186;2023-02-10T00:12:49;102067.63;;;-5.45;78.23
49102;BME280;34913;47.520;19.186;2023-02-10T00:15:14;102055.56;;;-5.43;78.29
49102;BME280;34913;47.520;19.186;2023-02-10T00:17:40;102058.94;;;-5.47;78.16
49102;BME280;34913;47.520;19.186;2023-02-10T00:20:05;102058.84;;;-5.53;78.71
49102;BME280;34913;47.520;19.186;2023-02-10T00:22:33;102058.00;;;-5.52;79.14
49102;BME280;34913;47.520;19.186;2023-02-10T00:24:58;102053.63;;;-5.54;79.29
49102;BME280;34913;47.520;19.186;2023-02-10T00:27:24;102056.16;;;-5.60;78.99
49102;BME280;34913;47.520;19.186;2023-02-10T00:29:50;102063.84;;;-5.64;78.89
49102;BME280;34913;47.520;19.186;2023-02-10T00:32:15;102065.56;;;-5.63;79.10
49102;BME280;34913;47.520;19.186;2023-02-10T00:34:43;102057.78;;;-5.66;78.79
49102;BME280;34913;47.520;19.186;2023-02-10T00:37:09;102062.09;;;-5.65;79.01
49102;BME280;34913;47.520;19.186;2023-02-10T00:39:35;102060.41;;;-5.63;79.31
49102;BME280;34913;47.520;19.186;2023-02-10T00:42:00;102057.81;;;-5.63;79.44
49102;BME280;34913;47.520;19.186;2023-02-10T00:44:25;102064.59;;;-5.69;79.05
49102;BME280;34913;47.520;19.186;2023-02-10T00:46:51;102069.72;;;-5.74;78.97
49102;BME280;34913;47.520;19.186;2023-02-10T00:49:16;102065.38;;;-5.76;79.75
49102;BME280;34913;47.520;19.186;2023-02-10T00:51:42;102061.84;;;-5.78;79.81
49102;BME280;34913;47.520;19.186;2023-02-10T00:54:08;102065.28;;;-5.79;79.81
49102;BME280;34913;47.520;19.186;2023-02-10T00:56:34;102064.41;;;-5.80;79.70
49102;BME280;34913;47.520;19.186;2023-02-10T00:59:00;102059.22;;;-5.81;79.42
49102;BME280;34913;47.520;19.186;2023-02-10T01:01:25;102060.84;;;-5.86;78.48
49102;BME280;34913;47.520;19.186;2023-02-10T01:03:51;102056.41;;;-5.97;79.01
49102;BME280;34913;47.520;19.186;2023-02-10T01:06:16;102058.03;;;-6.02;80.10
49102;BME280;34913;47.520;19.186;2023-02-10T01:08:42;102057.13;;;-6.04;80.45
49102;BME280;34913;47.520;19.186;2023-02-10T01:11:09;102049.47;;;-5.99;80.16
49102;BME280;34913;47.520;19.186;2023-02-10T01:13:36;102051.19;;;-6.00;80.16
49102;BME280;34913;47.520;19.186;2023-02-10T01:16:07;102046.59;;;-6.14;78.90
49102;BME280;34913;47.520;19.186;2023-02-10T01:18:37;102045.75;;;-6.15;79.11
49102;BME280;34913;47.520;19.186;2023-02-10T01:21:21;102045.78;;;-6.12;79.73
49102;BME280;34913;47.520;19.186;2023-02-10T01:23:47;102041.41;;;-6.16;79.89
49102;BME280;34913;47.520;19.186;2023-02-10T01:26:13;102042.34;;;-6.12;79.50
49102;BME280;34913;47.520;19.186;2023-02-10T01:28:40;102051.06;;;-6.07;79.13
49102;BME280;34913;47.520;19.186;2023-02-10T01:31:16;102041.59;;;-6.05;79.70
49102;BME280;34913;47.520;19.186;2023-02-10T01:33:43;102040.63;;;-6.10;79.41
49102;BME280;34913;47.520;19.186;2023-02-10T01:36:13;102040.56;;;-6.15;80.11
49102;BME280;34913;47.520;19.186;2023-02-10T01:38:38;102039.75;;;-6.11;80.17
49102;BME280;34913;47.520;19.186;2023-02-10T01:41:05;102036.28;;;-6.14;80.24
49102;BME280;34913;47.520;19.186;2023-02-10T01:43:31;102033.59;;;-6.18;80.05
49102;BME280;34913;47.520;19.186;2023-02-10T01:45:57;102035.28;;;-6.21;79.99
49102;BME280;34913;47.520;19.186;2023-02-10T01:48:23;102035.19;;;-6.26;80.11
49102;BME280;34913;47.520;19.186;2023-02-10T01:50:57;102030.03;;;-6.24;79.60
49102;BME280;34913;47.520;19.186;2023-02-10T01:53:25;102015.38;;;-6.25;79.51
49102;BME280;34913;47.520;19.186;2023-02-10T01:55:53;102022.47;;;-6.15;79.66
49102;BME280;34913;47.520;19.186;2023-02-10T01:58:22;102026.72;;;-6.17;79.60
49102;BME280;34913;47.520;19.186;2023-02-10T02:00:48;102021.50;;;-6.22;79.88
49102;BME280;34913;47.520;19.186;2023-02-10T02:03:14;102032.75;;;-6.16;79.39
49102;BME280;34913;47.520;19.186;2023-02-10T02:05:41;102039.69;;;-6.15;78.83
49102;BME280;34913;47.520;19.186;2023-02-10T02:08:43;102035.88;;;-6.34;78.29
49102;BME280;34913;47.520;19.186;2023-02-10T02:13:54;102039.25;;;-6.81;81.31
49102;BME280;34913;47.520;19.186;2023-02-10T02:32:49;102029.56;;;-6.92;82.51
49102;BME280;34913;47.520;19.186;2023-02-10T02:35:24;102031.16;;;-6.97;83.22
49102;BME280;34913;47.520;19.186;2023-02-10T02:37:52;102032.88;;;-6.98;83.28
49102;BME280;34913;47.520;19.186;2023-02-10T02:40:19;102033.06;;;-6.89;82.54
49102;BME280;34913;47.520;19.186;2023-02-10T02:42:45;102025.47;;;-6.81;82.36
49102;BME280;34913;47.520;19.186;2023-02-10T02:51:05;102023.91;;;-6.73;81.70
49102;BME280;34913;47.520;19.186;2023-02-10T02:53:55;102023.91;;;-6.73;81.80
49102;BME280;34913;47.520;19.186;2023-02-10T02:59:30;102028.09;;;-6.80;82.22
49102;BME280;34913;47.520;19.186;2023-02-10T03:02:00;102027.16;;;-6.83;82.06
49102;BME280;34913;47.520;19.186;2023-02-10T03:04:29;102030.50;;;-6.87;81.50
49102;BME280;34913;47.520;19.186;2023-02-10T03:06:55;102032.22;;;-6.88;81.55
49102;BME280;34913;47.520;19.186;2023-02-10T03:09:21;102032.22;;;-6.88;81.44
49102;BME280;34913;47.520;19.186;2023-02-10T03:11:46;102024.47;;;-6.88;81.80
49102;BME280;34913;47.520;19.186;2023-02-10T03:14:12;102020.13;;;-6.90;82.10
49102;BME280;34913;47.520;19.186;2023-02-10T03:16:37;102022.88;;;-6.83;81.94
49102;BME280;34913;47.520;19.186;2023-02-10T03:19:03;102029.00;;;-6.78;81.83
49102;BME280;34913;47.520;19.186;2023-02-10T03:21:28;102020.28;;;-6.83;81.42
49102;BME280;34913;47.520;19.186;2023-02-10T03:23:54;102017.69;;;-6.83;82.00
49102;BME280;34913;47.520;19.186;2023-02-10T03:26:19;102023.59;;;-6.88;81.24
49102;BME280;34913;47.520;19.186;2023-02-10T03:28:44;102025.28;;;-6.90;81.93
49102;BME280;34913;47.520;19.186;2023-02-10T03:31:10;102020.94;;;-6.93;82.17
49102;BME280;34913;47.520;19.186;2023-02-10T03:33:36;102020.13;;;-6.90;82.15
49102;BME280;34913;47.520;19.186;2023-02-10T03:36:02;102029.72;;;-6.85;82.00
49102;BME280;34913;47.520;19.186;2023-02-10T03:38:28;102021.84;;;-6.91;82.05
49102;BME280;34913;47.520;19.186;2023-02-10T03:40:54;102006.38;;;-6.89;82.08
49102;BME280;34913;47.520;19.186;2023-02-10T03:43:21;102022.81;;;-6.86;81.78
49102;BME280;34913;47.520;19.186;2023-02-10T03:45:46;102014.38;;;-6.77;82.08
49102;BME280;34913;47.520;19.186;2023-02-10T03:48:12;102008.38;;;-6.76;82.08
49102;BME280;34913;47.520;19.186;2023-02-10T03:50:38;102009.50;;;-6.63;81.74
49102;BME280;34913;47.520;19.186;2023-02-10T03:53:04;102011.41;;;-6.55;80.90
49102;BME280;34913;47.520;19.186;2023-02-10T03:55:30;102009.69;;;-6.54;80.70
49102;BME280;34913;47.520;19.186;2023-02-10T03:57:55;101999.97;;;-6.66;80.93
49102;BME280;34913;47.520;19.186;2023-02-10T04:00:21;101998.19;;;-6.70;81.39
49102;BME280;34913;47.520;19.186;2023-02-10T04:02:47;101997.38;;;-6.66;80.83
49102;BME280;34913;47.520;19.186;2023-02-10T04:05:12;101993.81;;;-6.72;81.24
49102;BME280;34913;47.520;19.186;2023-02-10T04:07:38;101998.88;;;-6.79;81.48
49102;BME280;34913;47.520;19.186;2023-02-10T04:10:04;101994.66;;;-6.73;81.46
49102;BME280;34913;47.520;19.186;2023-02-10T04:12:30;101987.75;;;-6.75;81.06
49102;BME280;34913;47.520;19.186;2023-02-10T04:14:56;101982.72;;;-6.68;80.87
49102;BME280;34913;47.520;19.186;2023-02-10T04:17:21;101977.44;;;-6.73;79.73
49102;BME280;34913;47.520;19.186;2023-02-10T04:19:46;101988.53;;;-6.79;79.47
49102;BME280;34913;47.520;19.186;2023-02-10T04:22:12;101985.72;;;-6.89;79.75
49102;BME280;34913;47.520;19.186;2023-02-10T04:24:37;101994.88;;;-7.04;79.22
49102;BME280;34913;47.520;19.186;2023-02-10T04:27:03;101985.84;;;-7.25;79.98
49102;BME280;34913;47.520;19.186;2023-02-10T04:29:28;101993.09;;;-7.47;81.02
49102;BME280;34913;47.520;19.186;2023-02-10T04:31:54;101996.69;;;-7.40;82.36
49102;BME280;34913;47.520;19.186;2023-02-10T04:34:20;101995.13;;;-7.34;82.68
49102;BME280;34913;47.520;19.186;2023-02-10T04:36:45;102005.50;;;-7.29;82.53
49102;BME280;34913;47.520;19.186;2023-02-10T04:39:11;102006.91;;;-7.43;80.74
49102;BME280;34913;47.520;19.186;2023-02-10T04:41:36;102013.38;;;-7.61;80.96
49102;BME280;34913;47.520;19.186;2023-02-10T04:44:02;102013.78;;;-7.80;81.85
49102;BME280;34913;47.520;19.186;2023-02-10T04:46:28;102023.22;;;-7.80;84.06
49102;BME280;34913;47.520;19.186;2023-02-10T04:48:54;102021.09;;;-7.62;84.98
49102;BME280;34913;47.520;19.186;2023-02-10T04:51:19;102024.00;;;-7.48;84.75
49102;BME280;34913;47.520;19.186;2023-02-10T04:53:45;102030.41;;;-7.31;84.02
49102;BME280;34913;47.520;19.186;2023-02-10T04:56:12;102035.63;;;-7.28;83.20
49102;BME280;34913;47.520;19.186;2023-02-10T04:58:38;102044.19;;;-7.31;82.19
49102;BME280;34913;47.520;19.186;2023-02-10T05:01:03;102052.59;;;-7.39;81.93
49102;BME280;34913;47.520;19.186;2023-02-10T05:03:28;102051.91;;;-7.32;82.83
49102;BME280;34913;47.520;19.186;2023-02-10T05:05:54;102048.63;;;-7.25;82.73
49102;BME280;34913;47.520;19.186;2023-02-10T05:08:20;102045.34;;;-7.18;82.62
49102;BME280;34913;47.520;19.186;2023-02-10T05:10:48;102041.00;;;-7.19;81.95
49102;BME280;34913;47.520;19.186;2023-02-10T05:13:14;102053.03;;;-7.19;81.71
49102;BME280;34913;47.520;19.186;2023-02-10T05:15:39;102058.19;;;-7.19;81.55
49102;BME280;34913;47.520;19.186;2023-02-10T05:18:05;102041.53;;;-7.34;81.25
49102;BME280;34913;47.520;19.186;2023-02-10T05:20:30;102049.53;;;-7.21;81.83
49102;BME280;34913;47.520;19.186;2023-02-10T05:22:56;102046.06;;;-7.23;81.72
49102;BME280;34913;47.520;19.186;2023-02-10T05:25:21;102047.75;;;-7.25;81.29
49102;BME280;34913;47.520;19.186;2023-02-10T05:27:46;102052.91;;;-7.25;81.67
49102;BME280;34913;47.520;19.186;2023-02-10T05:30:12;102048.44;;;-7.33;81.42
49102;BME280;34913;47.520;19.186;2023-02-10T05:32:41;102047.25;;;-7.47;81.80
49102;BME280;34913;47.520;19.186;2023-02-10T05:35:08;102053.25;;;-7.48;82.88
49102;BME280;34913;47.520;19.186;2023-02-10T05:37:34;102055.91;;;-7.43;83.19
49102;BME280;34913;47.520;19.186;2023-02-10T05:39:59;102055.78;;;-7.49;82.42
49102;BME280;34913;47.520;19.186;2023-02-10T05:42:25;102056.28;;;-7.64;81.66
49102;BME280;34913;47.520;19.186;2023-02-10T05:44:50;102062.22;;;-7.67;82.65
49102;BME280;34913;47.520;19.186;2023-02-10T05:47:16;102059.91;;;-7.56;83.74
49102;BME280;34913;47.520;19.186;2023-02-10T05:49:41;102059.25;;;-7.49;83.63
49102;BME280;34913;47.520;19.186;2023-02-10T05:52:07;102050.00;;;-7.39;83.38
49102;BME280;34913;47.520;19.186;2023-02-10T05:54:32;102057.84;;;-7.35;83.64
49102;BME280;34913;47.520;19.186;2023-02-10T05:56:58;102046.72;;;-7.32;83.56
49102;BME280;34913;47.520;19.186;2023-02-10T05:59:23;102060.81;;;-7.18;83.76
49102;BME280;34913;47.520;19.186;2023-02-10T06:01:49;102047.84;;;-7.21;83.37
49102;BME280;34913;47.520;19.186;2023-02-10T06:04:14;102055.53;;;-7.24;83.56
49102;BME280;34913;47.520;19.186;2023-02-10T06:06:39;102057.44;;;-7.15;84.43
49102;BME280;34913;47.520;19.186;2023-02-10T06:09:05;102044.84;;;-7.01;84.39
49102;BME280;34913;47.520;19.186;2023-02-10T06:11:31;102049.34;;;-6.93;83.23
49102;BME280;34913;47.520;19.186;2023-02-10T06:13:57;102052.66;;;-6.98;82.29
49102;BME280;34913;47.520;19.186;2023-02-10T06:16:23;102061.28;;;-6.96;82.56
49102;BME280;34913;47.520;19.186;2023-02-10T06:18:48;102054.41;;;-6.96;83.26
49102;BME280;34913;47.520;19.186;2023-02-10T06:21:16;102061.25;;;-6.98;83.70
49102;BME280;34913;47.520;19.186;2023-02-10T06:23:42;102066.34;;;-7.03;83.69
49102;BME280;34913;47.520;19.186;2023-02-10T06:26:09;102057.69;;;-7.03;83.98
49102;BME280;34913;47.520;19.186;2023-02-10T06:28:34;102063.03;;;-6.95;83.92
49102;BME280;34913;47.520;19.186;2023-02-10T06:31:00;102071.06;;;-6.83;83.82
49102;BME280;34913;47.520;19.186;2023-02-10T06:33:25;102066.91;;;-6.77;83.80
49102;BME280;34913;47.520;19.186;2023-02-10T06:35:51;102069.66;;;-6.67;83.72
49102;BME280;34913;47.520;19.186;2023-02-10T06:38:16;102078.59;;;-6.52;83.48
49102;BME280;34913;47.520;19.186;2023-02-10T06:40:42;102094.22;;;-6.45;82.99
49102;BME280;34913;47.520;19.186;2023-02-10T06:43:08;102088.22;;;-6.44;82.82
49102;BME280;34913;47.520;19.186;2023-02-10T06:45:34;102105.72;;;-6.31;82.83
49102;BME280;34913;47.520;19.186;2023-02-10T06:48:01;102119.75;;;-6.19;82.03
49102;BME280;34913;47.520;19.186;2023-02-10T06:50:26;102110.34;;;-6.15;81.92
49102;BME280;34913;47.520;19.186;2023-02-10T06:52:52;102114.00;;;-6.04;82.29
49102;BME280;34913;47.520;19.186;2023-02-10T06:55:17;102112.66;;;-5.82;81.87
49102;BME280;34913;47.520;19.186;2023-02-10T06:57:43;102105.66;;;-5.87;80.85
49102;BME280;34913;47.520;19.186;2023-02-10T07:00:11;102100.59;;;-5.83;81.65
49102;BME280;34913;47.520;19.186;2023-02-10T07:02:37;102103.19;;;-5.81;82.43
49102;BME280;34913;47.520;19.186;2023-02-10T07:05:04;102106.56;;;-5.85;82.64
49102;BME280;34913;47.520;19.186;2023-02-10T07:07:31;102111.59;;;-5.95;83.13
49102;BME280;34913;47.520;19.186;2023-02-10T07:09:57;102102.97;;;-5.95;83.76
49102;BME280;34913;47.520;19.186;2023-02-10T07:12:22;102111.94;;;-5.75;83.58
49102;BME280;34913;47.520;19.186;2023-02-10T07:14:51;102113.13;;;-5.54;83.97
49102;BME280;34913;47.520;19.186;2023-02-10T07:17:16;102111.78;;;-5.32;83.28
49102;BME280;34913;47.520;19.186;2023-02-10T07:19:42;102112.84;;;-5.21;82.53
49102;BME280;34913;47.520;19.186;2023-02-10T07:22:07;102115.69;;;-5.04;82.12
49102;BME280;34913;47.520;19.186;2023-02-10T07:24:33;102113.38;;;-4.86;82.16
49102;BME280;34913;47.520;19.186;2023-02-10T07:26:59;102108.38;;;-4.72;81.55
49102;BME280;34913;47.520;19.186;2023-02-10T07:29:26;102102.50;;;-4.59;80.53
49102;BME280;34913;47.520;19.186;2023-02-10T07:31:51;102109.59;;;-4.47;80.64
49102;BME280;34913;47.520;19.186;2023-02-10T07:34:17;102107.03;;;-4.43;81.00
49102;BME280;34913;47.520;19.186;2023-02-10T07:36:46;102094.25;;;-4.29;80.65
49102;BME280;34913;47.520;19.186;2023-02-10T07:39:12;102100.66;;;-3.97;80.13
49102;BME280;34913;47.520;19.186;2023-02-10T07:41:37;102093.13;;;-3.72;78.63
49102;BME280;34913;47.520;19.186;2023-02-10T07:44:03;102102.88;;;-3.47;76.87
49102;BME280;34913;47.520;19.186;2023-02-10T07:46:28;102093.44;;;-3.37;75.60
49102;BME280;34913;47.520;19.186;2023-02-10T07:48:54;102093.56;;;-3.23;74.99
49102;BME280;34913;47.520;19.186;2023-02-10T07:51:19;102096.19;;;-3.19;74.22
49102;BME280;34913;47.520;19.186;2023-02-10T07:53:45;102095.31;;;-3.18;74.04
49102;BME280;34913;47.520;19.186;2023-02-10T07:56:11;102109.25;;;-3.06;73.82
49102;BME280;34913;47.520;19.186;2023-02-10T07:58:36;102108.50;;;-2.87;72.99
49102;BME280;34913;47.520;19.186;2023-02-10T08:01:10;102106.81;;;-2.84;72.72
49102;BME280;34913;47.520;19.186;2023-02-10T08:03:35;102112.91;;;-2.80;73.03
49102;BME280;34913;47.520;19.186;2023-02-10T08:06:01;102114.72;;;-2.64;72.64
49102;BME280;34913;47.520;19.186;2023-02-10T08:08:27;102121.78;;;-2.44;72.21
49102;BME280;34913;47.520;19.186;2023-02-10T08:10:52;102120.94;;;-2.36;71.98
49102;BME280;34913;47.520;19.186;2023-02-10T08:13:18;102122.72;;;-2.24;72.28
49102;BME280;34913;47.520;19.186;2023-02-10T08:15:43;102127.09;;;-2.06;71.63
49102;BME280;34913;47.520;19.186;2023-02-10T08:18:09;102121.09;;;-1.88;70.78
49102;BME280;34913;47.520;19.186;2023-02-10T08:20:35;102117.66;;;-1.80;70.22
49102;BME280;34913;47.520;19.186;2023-02-10T08:23:00;102131.53;;;-1.75;69.69
49102;BME280;34913;47.520;19.186;2023-02-10T08:25:26;102125.50;;;-1.63;69.51
49102;BME280;34913;47.520;19.186;2023-02-10T08:27:52;102116.84;;;-1.48;68.88
49102;BME280;34913;47.520;19.186;2023-02-10T08:30:18;102115.09;;;-1.23;67.96
49102;BME280;34913;47.520;19.186;2023-02-10T08:32:44;102121.16;;;-0.95;66.98
49102;BME280;34913;47.520;19.186;2023-02-10T08:35:09;102115.91;;;-0.74;67.24
49102;BME280;34913;47.520;19.186;2023-02-10T08:37:35;102125.44;;;-0.61;65.39
49102;BME280;34913;47.520;19.186;2023-02-10T08:40:00;102124.56;;;-0.47;65.19
49102;BME280;34913;47.520;19.186;2023-02-10T08:42:27;102121.00;;;-0.34;64.76
49102;BME280;34913;47.520;19.186;2023-02-10T08:44:53;102120.06;;;-0.16;64.23
49102;BME280;34913;47.520;19.186;2023-02-10T08:47:18;102125.22;;;-0.03;64.45
49102;BME280;34913;47.520;19.186;2023-02-10T08:49:43;102125.97;;;0.24;62.84
49102;BME280;34913;47.520;19.186;2023-02-10T08:52:10;102124.94;;;0.48;62.75
49102;BME280;34913;47.520;19.186;2023-02-10T08:54:35;102123.09;;;0.59;62.23
49102;BME280;34913;47.520;19.186;2023-02-10T08:57:01;102123.03;;;0.68;62.28
49102;BME280;34913;47.520;19.186;2023-02-10T08:59:26;102131.66;;;0.79;60.49
49102;BME280;34913;47.520;19.186;2023-02-10T09:01:52;102130.72;;;0.85;60.18
49102;BME280;34913;47.520;19.186;2023-02-10T09:04:17;102124.56;;;0.95;59.85
49102;BME280;34913;47.520;19.186;2023-02-10T09:06:43;102126.00;;;1.27;58.92
49102;BME280;34913;47.520;19.186;2023-02-10T09:09:17;102130.19;;;1.42;57.56
49102;BME280;34913;47.520;19.186;2023-02-10T09:11:46;102127.50;;;1.49;57.67
49102;BME280;34913;47.520;19.186;2023-02-10T09:14:11;102122.25;;;1.52;57.75
49102;BME280;34913;47.520;19.186;2023-02-10T09:16:37;102117.47;;;1.85;57.77
49102;BME280;34913;47.520;19.186;2023-02-10T09:19:03;102104.28;;;1.92;56.49
49102;BME280;34913;47.520;19.186;2023-02-10T09:21:29;102116.25;;;2.10;55.39
49102;BME280;34913;47.520;19.186;2023-02-10T09:23:55;102113.56;;;2.16;55.25
49102;BME280;34913;47.520;19.186;2023-02-10T09:26:20;102118.78;;;2.18;56.01
49102;BME280;34913;47.520;19.186;2023-02-10T09:28:45;102109.91;;;2.30;54.98
49102;BME280;34913;47.520;19.186;2023-02-10T09:31:12;102115.03;;;2.37;54.87
49102;BME280;34913;47.520;19.186;2023-02-10T09:33:38;102116.06;;;2.26;54.76
49102;BME280;34913;47.520;19.186;2023-02-10T09:36:05;102111.31;;;2.50;54.17
49102;BME280;34913;47.520;19.186;2023-02-10T09:38:31;102115.25;;;2.22;55.53
49102;BME280;34913;47.520;19.186;2023-02-10T09:41:12;102121.78;;;2.50;54.54
49102;BME280;34913;47.520;19.186;2023-02-10T09:49:59;102123.13;;;2.77;55.15
49102;BME280;34913;47.520;19.186;2023-02-10T09:52:51;102116.94;;;2.82;53.29
49102;BME280;34913;47.520;19.186;2023-02-10T09:55:23;102119.03;;;3.12;52.47
49102;BME280;34913;47.520;19.186;2023-02-10T10:00:39;102107.44;;;3.24;52.17
49102;BME280;34913;47.520;19.186;2023-02-10T10:03:10;102116.00;;;3.35;51.60
49102;BME280;34913;47.520;19.186;2023-02-10T10:08:36;102104.09;;;3.60;50.96
49102;BME280;34913;47.520;19.186;2023-02-10T10:13:53;102096.78;;;3.33;51.47
49102;BME280;34913;47.520;19.186;2023-02-10T10:27:26;102100.03;;;4.65;54.55
49102;BME280;34913;47.520;19.186;2023-02-10T10:29:55;102099.34;;;4.92;57.66
49102;BME280;34913;47.520;19.186;2023-02-10T10:32:41;102096.56;;;4.98;53.95
49102;BME280;34913;47.520;19.186;2023-02-10T10:35:21;102089.03;;;5.17;51.05
49102;BME280;34913;47.520;19.186;2023-02-10T10:37:47;102087.91;;;5.26;51.13
49102;BME280;34913;47.520;19.186;2023-02-10T10:40:33;102079.16;;;5.25;46.34
49102;BME280;34913;47.520;19.186;2023-02-10T10:43:02;102080.56;;;5.06;46.95
49102;BME280;34913;47.520;19.186;2023-02-10T10:45:39;102078.63;;;4.79;46.93
49102;BME280;34913;47.520;19.186;2023-02-10T10:48:09;102073.19;;;4.86;46.53
49102;BME280;34913;47.520;19.186;2023-02-10T10:50:39;102067.22;;;4.80;46.05
49102;BME280;34913;47.520;19.186;2023-02-10T10:53:16;102068.31;;;4.71;46.02
49102;BME280;34913;47.520;19.186;2023-02-10T10:55:50;102063.13;;;4.68;45.13
49102;BME280;34913;47.520;19.186;2023-02-10T10:58:30;102053.91;;;4.52;45.92
49102;BME280;34913;47.520;19.186;2023-02-10T11:00:58;102057.03;;;4.67;45.35
49102;BME280;34913;47.520;19.186;2023-02-10T11:03:24;102049.91;;;4.71;44.72
49102;BME280;34913;47.520;19.186;2023-02-10T11:06:14;102040.75;;;4.50;44.74
49102;BME280;34913;47.520;19.186;2023-02-10T11:08:53;102038.94;;;4.54;44.94
49102;BME280;34913;47.520;19.186;2023-02-10T11:11:19;102033.72;;;4.52;44.94
49102;BME280;34913;47.520;19.186;2023-02-10T11:13:55;102021.41;;;4.54;44.61
49102;BME280;34913;47.520;19.186;2023-02-10T11:16:21;102022.63;;;4.39;46.06
49102;BME280;34913;47.520;19.186;2023-02-10T11:18:59;102023.84;;;4.62;44.59
49102;BME280;34913;47.520;19.186;2023-02-10T11:21:39;102027.75;;;4.45;45.35
49102;BME280;34913;47.520;19.186;2023-02-10T11:24:28;102034.06;;;4.74;44.34
49102;BME280;34913;47.520;19.186;2023-02-10T11:29:20;102040.75;;;4.86;43.42
49102;BME280;34913;47.520;19.186;2023-02-10T11:31:46;102035.78;;;4.73;44.46
49102;BME280;34913;47.520;19.186;2023-02-10T11:34:23;102040.03;;;4.79;43.56
49102;BME280;34913;47.520;19.186;2023-02-10T11:36:50;102031.63;;;4.99;43.09
49102;BME280;34913;47.520;19.186;2023-02-10T11:39:33;102025.38;;;5.03;42.84
49102;BME280;34913;47.520;19.186;2023-02-10T11:42:08;102025.47;;;5.00;43.40
49102;BME280;34913;47.520;19.186;2023-02-10T11:44:35;102028.34;;;4.91;43.80
49102;BME280;34913;47.520;19.186;2023-02-10T11:47:04;102022.69;;;5.06;43.19
49102;BME280;34913;47.520;19.186;2023-02-10T11:49:34;102008.66;;;5.04;43.20
49102;BME280;34913;47.520;19.186;2023-02-10T11:52:02;102002.53;;;5.03;42.81
49102;BME280;34913;47.520;19.186;2023-02-10T11:54:29;101999.41;;;4.91;43.77
49102;BME280;34913;47.520;19.186;2023-02-10T12:00:18;101986.50;;;5.13;43.85
49102;BME280;34913;47.520;19.186;2023-02-10T12:05:37;101977.88;;;5.37;44.73
49102;BME280;34913;47.520;19.186;2023-02-10T12:08:10;101965.25;;;5.19;44.50
49102;BME280;34913;47.520;19.186;2023-02-10T12:10:50;101961.78;;;5.18;44.36
49102;BME280;34913;47.520;19.186;2023-02-10T12:13:41;101965.00;;;5.28;44.56
49102;BME280;34913;47.520;19.186;2023-02-10T12:16:20;101957.03;;;5.31;44.13
49102;BME280;34913;47.520;19.186;2023-02-10T12:21:49;101966.66;;;5.01;44.90
49102;BME280;34913;47.520;19.186;2023-02-10T12:27:11;101954.41;;;5.00;44.51
49102;BME280;34913;47.520;19.186;2023-02-10T12:38:55;101948.63;;;4.87;45.36
49102;BME280;34913;47.520;19.186;2023-02-10T12:47:09;101938.41;;;5.08;44.46
49102;BME280;34913;47.520;19.186;2023-02-10T12:55:02;101931.63;;;4.99;44.10
49102;BME280;34913;47.520;19.186;2023-02-10T12:57:57;101934.22;;;5.00;43.84
49102;BME280;34913;47.520;19.186;2023-02-10T13:00:25;101941.38;;;4.95;43.54
49102;BME280;34913;47.520;19.186;2023-02-10T13:03:04;101947.91;;;4.81;44.38
49102;BME280;34913;47.520;19.186;2023-02-10T13:05:37;101941.63;;;4.86;44.75
49102;BME280;34913;47.520;19.186;2023-02-10T13:08:05;101943.84;;;5.01;43.99
49102;BME280;34913;47.520;19.186;2023-02-10T13:10:37;101951.72;;;5.01;43.74
49102;BME280;34913;47.520;19.186;2023-02-10T13:13:19;101952.50;;;5.05;44.06
49102;BME280;34913;47.520;19.186;2023-02-10T13:18:25;101947.00;;;5.14;43.82
49102;BME280;34913;47.520;19.186;2023-02-10T13:23:52;101942.53;;;5.16;44.34
49102;BME280;34913;47.520;19.186;2023-02-10T13:34:28;101934.47;;;5.22;44.43
49102;BME280;34913;47.520;19.186;2023-02-10T13:37:05;101932.06;;;5.13;44.06
49102;BME280;34913;47.520;19.186;2023-02-10T13:39:32;101932.53;;;5.27;43.87
49102;BME280;34913;47.520;19.186;2023-02-10T13:45:23;101917.59;;;5.28;43.81
49102;BME280;34913;47.520;19.186;2023-02-10T13:47:58;101927.72;;;5.12;43.68
49102;BME280;34913;47.520;19.186;2023-02-10T13:58:55;101935.38;;;4.90;44.73
49102;BME280;34913;47.520;19.186;2023-02-10T14:01:46;101925.75;;;4.89;44.71
49102;BME280;34913;47.520;19.186;2023-02-10T14:06:49;101927.44;;;4.92;44.63
49102;BME280;34913;47.520;19.186;2023-02-10T14:11:53;101917.31;;;4.78;45.08
49102;BME280;34913;47.520;19.186;2023-02-10T14:14:25;101922.50;;;4.80;45.02
49102;BME280;34913;47.520;19.186;2023-02-10T14:16:52;101913.81;;;4.78;45.15
49102;BME280;34913;47.520;19.186;2023-02-10T14:19:37;101929.44;;;4.51;45.61
49102;BME280;34913;47.520;19.186;2023-02-10T14:22:04;101925.88;;;4.54;45.72
49102;BME280;34913;47.520;19.186;2023-02-10T14:24:36;101926.03;;;4.47;46.31
49102;BME280;34913;47.520;19.186;2023-02-10T14:27:11;101920.81;;;4.46;46.17
49102;BME280;34913;47.520;19.186;2023-02-10T14:29:43;101931.22;;;4.49;46.16
49102;BME280;34913;47.520;19.186;2023-02-10T14:32:13;101925.38;;;4.39;46.01
49102;BME280;34913;47.520;19.186;2023-02-10T14:34:39;101929.97;;;4.31;46.77
49102;BME280;34913;47.520;19.186;2023-02-10T14:37:18;101930.91;;;4.29;46.66
49102;BME280;34913;47.520;19.186;2023-02-10T14:39:57;101929.25;;;4.25;47.13
49102;BME280;34913;47.520;19.186;2023-02-10T14:42:26;101908.31;;;4.22;47.09
49102;BME280;34913;47.520;19.186;2023-02-10T14:44:54;101909.38;;;4.14;47.45
49102;BME280;34913;47.520;19.186;2023-02-10T14:47:23;101922.50;;;4.14;47.39